Time;durP1;ratioP1;P1;durP2;ratioP2;P2;SDS_P1;SDS_P2;PMS_P1;PMS_P2;Temp;Humidity;BMP_temperature;BMP_pressure;BME280_temperature;BME280_humidity;BME280_pressure;Samples;Min_cycle;Max_cycle;Signal;HPM_P1;HPM_P2
2024/03/03 00:02:57;;;;;;;13.63;9.93;;;;;;;;;;6310512;28;20112;-79
2024/03/03 00:05:58;;;;;;;12.60;9.33;;;;;;;;;;6311868;28;20480;-80
2024/03/03 00:08:58;;;;;;;18.00;9.63;;;;;;;;;;6310863;28;20371;-81
2024/03/03 00:11:58;;;;;;;12.93;9.67;;;;;;;;;;6298310;28;20105;-80
2024/03/03 00:14:59;;;;;;;13.87;9.57;;;;;;;;;;6309416;28;20749;-81
2024/03/03 00:17:59;;;;;;;13.57;9.50;;;;;;;;;;6295982;28;20047;-82
2024/03/03 00:20:59;;;;;;;13.40;9.00;;;;;;;;;;6316313;28;20024;-84
2024/03/03 00:24:00;;;;;;;11.53;8.90;;;;;;;;;;6308966;28;20029;-84
2024/03/03 00:27:00;;;;;;;12.87;9.10;;;;;;;;;;6319483;28;20117;-82
2024/03/03 00:30:00;;;;;;;11.37;8.27;;;;;;;;;;6321287;28;20485;-81
2024/03/03 00:33:01;;;;;;;11.23;8.37;;;;;;;;;;6304631;28;20046;-83
2024/03/03 00:36:05;;;;;;;12.27;9.10;;;;;;;;;;6316552;28;20313;-83
2024/03/03 00:39:05;;;;;;;10.55;8.68;;;;;;;;;;6293119;28;20119;-82
2024/03/03 00:42:06;;;;;;;11.47;8.77;;;;;;;;;;6293992;28;20032;-81
2024/03/03 00:45:06;;;;;;;12.87;8.90;;;;;;;;;;6301436;28;20024;-83
2024/03/03 00:48:06;;;;;;;11.37;8.63;;;;;;;;;;6312202;28;20024;-82
2024/03/03 00:51:07;;;;;;;12.50;7.93;;;;;;;;;;6313785;28;20028;-82
2024/03/03 00:54:07;;;;;;;11.77;8.70;;;;;;;;;;6321239;28;20022;-81
2024/03/03 00:57:07;;;;;;;12.10;8.63;;;;;;;;;;6302729;28;20101;-82
2024/03/03 01:00:09;;;;;;;12.40;8.40;;;;;;;;;;6320114;28;20461;-81
2024/03/03 01:03:09;;;;;;;14.48;9.60;;;;;;;;;;6302535;28;20032;-81
2024/03/03 01:06:09;;;;;;;12.47;8.83;;;;;;;;;;6296924;28;20087;-81
2024/03/03 01:09:09;;;;;;;11.00;8.90;;;;;;;;;;6298224;28;20028;-81
2024/03/03 01:12:10;;;;;;;11.40;8.67;;;;;;;;;;6321661;28;20085;-81
2024/03/03 01:15:10;;;;;;;11.20;8.87;;;;;;;;;;6297341;28;20040;-81
2024/03/03 01:18:10;;;;;;;12.07;8.07;;;;;;;;;;6298518;28;20043;-81
2024/03/03 01:21:10;;;;;;;9.20;7.33;;;;;;;;;;6317074;28;20024;-82
2024/03/03 01:24:11;;;;;;;11.10;7.87;;;;;;;;;;6303204;28;20044;-81
2024/03/03 01:27:11;;;;;;;10.63;8.07;;;;;;;;;;6320895;28;20361;-81
2024/03/03 01:30:11;;;;;;;11.47;8.23;;;;;;;;;;6320759;28;20073;-81
2024/03/03 01:33:11;;;;;;;9.20;7.53;;;;;;;;;;6317053;28;20023;-81
2024/03/03 01:36:12;;;;;;;11.83;8.50;;;;;;;;;;6310058;28;20047;-81
2024/03/03 01:39:12;;;;;;;13.17;9.00;;;;;;;;;;6300324;28;20040;-81
2024/03/03 01:42:13;;;;;;;10.73;8.43;;;;;;;;;;6321634;28;20039;-81
2024/03/03 01:45:21;;;;;;;10.33;7.27;;;;;;;;;;6319764;28;20369;-81
2024/03/03 01:48:21;;;;;;;10.73;8.00;;;;;;;;;;6313309;28;20019;-79
2024/03/03 01:51:22;;;;;;;10.63;8.07;;;;;;;;;;6297927;28;20028;-81
2024/03/03 01:54:22;;;;;;;11.05;7.70;;;;;;;;;;6312817;28;20399;-81
2024/03/03 01:57:22;;;;;;;10.90;7.57;;;;;;;;;;6318269;28;20499;-81
2024/03/03 02:00:25;;;;;;;10.87;7.73;;;;;;;;;;6319893;28;20104;-83
2024/03/03 02:03:25;;;;;;;10.63;8.00;;;;;;;;;;6318692;28;20447;-81
2024/03/03 02:06:32;;;;;;;11.40;7.43;;;;;;;;;;6318003;28;20026;-82
2024/03/03 02:09:33;;;;;;;9.85;7.70;;;;;;;;;;6318422;28;20103;-81
2024/03/03 02:12:33;;;;;;;11.23;7.60;;;;;;;;;;6319304;28;20020;-81
2024/03/03 02:15:33;;;;;;;9.23;7.17;;;;;;;;;;6298865;28;20464;-79
2024/03/03 02:18:33;;;;;;;9.80;7.73;;;;;;;;;;6320707;28;20137;-82
2024/03/03 02:21:34;;;;;;;10.73;7.97;;;;;;;;;;6318710;28;20024;-81
2024/03/03 02:24:34;;;;;;;9.97;7.70;;;;;;;;;;6317002;28;20530;-81
2024/03/03 02:27:34;;;;;;;10.50;7.77;;;;;;;;;;6316426;28;20878;-80
2024/03/03 02:30:35;;;;;;;10.67;7.47;;;;;;;;;;6320232;28;20035;-81
2024/03/03 02:33:35;;;;;;;10.90;7.50;;;;;;;;;;6301068;28;20050;-80
2024/03/03 02:36:35;;;;;;;10.07;7.70;;;;;;;;;;6317749;28;20434;-80
2024/03/03 02:39:35;;;;;;;8.90;7.00;;;;;;;;;;6321365;28;20028;-80
2024/03/03 02:42:36;;;;;;;9.57;7.33;;;;;;;;;;6320248;28;20033;-80
2024/03/03 02:45:36;;;;;;;9.40;7.50;;;;;;;;;;6318455;28;20385;-80
2024/03/03 02:48:36;;;;;;;11.37;6.77;;;;;;;;;;6319165;28;20496;-80
2024/03/03 02:51:36;;;;;;;9.37;6.97;;;;;;;;;;6313066;28;20358;-80
2024/03/03 02:54:37;;;;;;;9.80;6.30;;;;;;;;;;6318297;28;20472;-79
2024/03/03 02:57:37;;;;;;;8.87;6.80;;;;;;;;;;6302264;28;20016;-81
2024/03/03 03:00:37;;;;;;;10.50;7.17;;;;;;;;;;6319582;28;20028;-80
2024/03/03 03:03:38;;;;;;;9.60;7.20;;;;;;;;;;6316748;28;20039;-81
2024/03/03 03:06:38;;;;;;;8.67;6.80;;;;;;;;;;6311743;28;20080;-80
2024/03/03 03:09:39;;;;;;;9.80;6.83;;;;;;;;;;6296743;28;20316;-80
2024/03/03 03:12:39;;;;;;;8.30;6.83;;;;;;;;;;6321462;28;20015;-80
2024/03/03 03:15:39;;;;;;;10.23;6.63;;;;;;;;;;6322392;28;20110;-80
2024/03/03 03:18:41;;;;;;;8.70;6.43;;;;;;;;;;6321306;28;20119;-80
2024/03/03 03:21:41;;;;;;;9.73;7.15;;;;;;;;;;6318617;28;20085;-80
2024/03/03 03:24:42;;;;;;;8.43;6.70;;;;;;;;;;6315897;28;20497;-81
2024/03/03 03:27:42;;;;;;;8.97;6.43;;;;;;;;;;6305540;28;20051;-80
2024/03/03 03:30:42;;;;;;;8.80;6.43;;;;;;;;;;6320480;28;20038;-80
2024/03/03 03:33:42;;;;;;;7.47;6.27;;;;;;;;;;6319891;28;20154;-80
2024/03/03 03:36:43;;;;;;;11.33;7.27;;;;;;;;;;6321040;28;20069;-81
2024/03/03 03:39:43;;;;;;;9.07;6.37;;;;;;;;;;6323982;28;20032;-80
2024/03/03 03:42:43;;;;;;;9.03;6.67;;;;;;;;;;6321997;28;20012;-81
2024/03/03 03:45:43;;;;;;;8.47;6.17;;;;;;;;;;6318895;28;20012;-81
2024/03/03 03:48:44;;;;;;;9.67;6.63;;;;;;;;;;6323857;28;20034;-81
2024/03/03 03:51:44;;;;;;;8.80;6.23;;;;;;;;;;6320235;28;20024;-81
2024/03/03 03:54:44;;;;;;;9.40;6.47;;;;;;;;;;6322815;28;20442;-81
2024/03/03 03:57:44;;;;;;;10.17;6.73;;;;;;;;;;6301239;28;20516;-81
2024/03/03 04:00:45;;;;;;;7.70;5.57;;;;;;;;;;6320062;28;20024;-83
2024/03/03 04:03:45;;;;;;;8.80;6.10;;;;;;;;;;6321823;28;20108;-82
2024/03/03 04:06:46;;;;;;;7.78;6.07;;;;;;;;;;6315793;28;20529;-81
2024/03/03 04:09:46;;;;;;;7.47;6.00;;;;;;;;;;6318751;28;20031;-80
2024/03/03 04:12:46;;;;;;;6.80;5.53;;;;;;;;;;6303842;28;20077;-81
2024/03/03 04:15:47;;;;;;;5.63;5.03;;;;;;;;;;6321882;28;20077;-81
2024/03/03 04:18:47;;;;;;;7.80;5.70;;;;;;;;;;6320449;28;20038;-81
2024/03/03 04:21:47;;;;;;;6.23;5.50;;;;;;;;;;6321309;28;20035;-81
2024/03/03 04:24:47;;;;;;;6.37;5.27;;;;;;;;;;6298434;28;20036;-81
2024/03/03 04:27:48;;;;;;;7.63;5.60;;;;;;;;;;6321707;28;20062;-81
2024/03/03 04:30:48;;;;;;;7.90;5.67;;;;;;;;;;6321299;28;20024;-81
2024/03/03 04:33:48;;;;;;;6.00;4.87;;;;;;;;;;6321330;28;20028;-84
2024/03/03 04:36:48;;;;;;;6.70;4.90;;;;;;;;;;6317586;28;20362;-81
2024/03/03 04:39:49;;;;;;;7.50;4.93;;;;;;;;;;6323464;28;20020;-81
2024/03/03 04:42:49;;;;;;;7.20;5.47;;;;;;;;;;6320238;28;20024;-81
2024/03/03 04:45:49;;;;;;;6.57;5.53;;;;;;;;;;6322123;28;20024;-81
2024/03/03 04:48:49;;;;;;;7.63;5.37;;;;;;;;;;6320890;28;20039;-82
2024/03/03 04:51:50;;;;;;;5.90;4.87;;;;;;;;;;6317236;28;20110;-81
2024/03/03 04:54:50;;;;;;;5.43;4.67;;;;;;;;;;6322459;28;20048;-80
2024/03/03 04:57:52;;;;;;;7.67;5.07;;;;;;;;;;6320377;28;20059;-79
2024/03/03 05:00:52;;;;;;;8.40;5.05;;;;;;;;;;6300081;28;20128;-80
2024/03/03 05:03:52;;;;;;;6.67;4.93;;;;;;;;;;6313660;28;20024;-80
2024/03/03 05:06:53;;;;;;;5.93;4.73;;;;;;;;;;6312051;28;20041;-80
2024/03/03 05:09:53;;;;;;;5.67;4.30;;;;;;;;;;6291798;28;20028;-78
2024/03/03 05:12:53;;;;;;;6.10;4.30;;;;;;;;;;6320353;28;20012;-80
2024/03/03 05:15:53;;;;;;;5.80;4.53;;;;;;;;;;6317220;28;20457;-80
2024/03/03 05:18:54;;;;;;;6.10;5.00;;;;;;;;;;6320000;28;20453;-80
2024/03/03 05:21:54;;;;;;;6.13;3.87;;;;;;;;;;6318424;28;20084;-80
2024/03/03 05:24:54;;;;;;;5.37;4.03;;;;;;;;;;6294327;28;20090;-80
2024/03/03 05:27:55;;;;;;;5.10;4.10;;;;;;;;;;6294678;28;20027;-80
2024/03/03 05:30:55;;;;;;;5.57;4.20;;;;;;;;;;6296142;28;20033;-81
2024/03/03 05:33:55;;;;;;;5.33;4.03;;;;;;;;;;6293561;28;20017;-80
2024/03/03 05:36:55;;;;;;;5.87;4.40;;;;;;;;;;6293105;28;20462;-80
2024/03/03 05:39:56;;;;;;;5.23;3.87;;;;;;;;;;6293342;28;20029;-79
2024/03/03 05:42:56;;;;;;;6.27;4.30;;;;;;;;;;6288055;28;20020;-80
2024/03/03 05:45:56;;;;;;;4.63;3.73;;;;;;;;;;6292606;28;20020;-80
2024/03/03 05:48:56;;;;;;;4.93;3.80;;;;;;;;;;6293237;28;20397;-79
2024/03/03 05:51:57;;;;;;;5.63;4.00;;;;;;;;;;6290372;28;20048;-80
2024/03/03 05:54:58;;;;;;;4.75;3.80;;;;;;;;;;6292980;28;20029;-80
2024/03/03 05:57:58;;;;;;;5.17;4.03;;;;;;;;;;6294697;28;20489;-80
2024/03/03 06:00:58;;;;;;;4.27;3.60;;;;;;;;;;6292111;28;20503;-80
2024/03/03 06:03:58;;;;;;;4.80;3.67;;;;;;;;;;6290814;28;20104;-80
2024/03/03 06:06:58;;;;;;;4.60;3.30;;;;;;;;;;6292564;28;20528;-80
2024/03/03 06:09:59;;;;;;;5.10;3.70;;;;;;;;;;6291191;28;20099;-80
2024/03/03 06:12:59;;;;;;;4.77;3.73;;;;;;;;;;6290985;28;20029;-80
2024/03/03 06:15:59;;;;;;;6.93;3.70;;;;;;;;;;6293931;28;20024;-80
2024/03/03 06:18:59;;;;;;;4.80;3.43;;;;;;;;;;6294379;28;20354;-80
2024/03/03 06:22:00;;;;;;;4.90;3.43;;;;;;;;;;6292653;28;20051;-80
2024/03/03 06:25:00;;;;;;;4.50;3.67;;;;;;;;;;6302502;28;20059;-81
2024/03/03 06:28:01;;;;;;;4.80;3.53;;;;;;;;;;6320200;28;20270;-81
2024/03/03 06:31:01;;;;;;;4.70;3.77;;;;;;;;;;6318028;28;20110;-80
2024/03/03 06:34:01;;;;;;;4.23;3.37;;;;;;;;;;6320407;28;20052;-80
2024/03/03 06:37:02;;;;;;;5.77;3.57;;;;;;;;;;6315363;28;20375;-80
2024/03/03 06:40:03;;;;;;;5.23;3.60;;;;;;;;;;6317037;28;20090;-80
2024/03/03 06:43:03;;;;;;;4.75;3.50;;;;;;;;;;6295160;28;20290;-80
2024/03/03 06:46:03;;;;;;;5.30;3.13;;;;;;;;;;6319919;28;20020;-81
2024/03/03 06:49:04;;;;;;;5.17;3.40;;;;;;;;;;6325047;28;20024;-80
2024/03/03 06:52:04;;;;;;;3.60;2.93;;;;;;;;;;6304476;28;20024;-80
2024/03/03 06:55:06;;;;;;;3.77;3.37;;;;;;;;;;6321489;28;20024;-80
2024/03/03 06:58:06;;;;;;;4.25;3.15;;;;;;;;;;6321765;28;20028;-80
2024/03/03 07:01:06;;;;;;;4.87;3.13;;;;;;;;;;6323259;28;20483;-80
2024/03/03 07:04:24;;;;;;;3.70;2.90;;;;;;;;;;6324930;28;20786;-80
2024/03/03 07:07:26;;;;;;;4.00;2.90;;;;;;;;;;6323919;28;20054;-79
2024/03/03 07:10:26;;;;;;;4.57;3.75;;;;;;;;;;6312319;28;20021;-80
2024/03/03 07:13:26;;;;;;;4.50;3.30;;;;;;;;;;6323894;28;20028;-81
2024/03/03 07:16:27;;;;;;;4.07;3.27;;;;;;;;;;6320419;28;20082;-80
2024/03/03 07:19:27;;;;;;;3.17;2.57;;;;;;;;;;6324022;28;20039;-81
2024/03/03 07:22:33;;;;;;;4.07;2.73;;;;;;;;;;6306046;28;20016;-79
2024/03/03 07:25:33;;;;;;;3.70;2.63;;;;;;;;;;6323782;28;20044;-81
2024/03/03 07:28:33;;;;;;;4.37;3.00;;;;;;;;;;6305984;28;20028;-82
2024/03/03 07:31:36;;;;;;;3.67;2.53;;;;;;;;;;6323053;28;20024;-80
2024/03/03 07:34:36;;;;;;;3.20;2.42;;;;;;;;;;6316117;28;20096;-80
2024/03/03 07:37:37;;;;;;;2.33;2.03;;;;;;;;;;6320457;28;20381;-79
2024/03/03 07:40:37;;;;;;;3.23;2.30;;;;;;;;;;6319500;28;20372;-78
2024/03/03 07:43:37;;;;;;;2.90;2.37;;;;;;;;;;6323657;28;20020;-81
2024/03/03 07:46:38;;;;;;;4.03;2.60;;;;;;;;;;6323325;28;20016;-78
2024/03/03 07:49:40;;;;;;;2.43;2.07;;;;;;;;;;6321661;28;20568;-79
2024/03/03 07:52:40;;;;;;;2.63;2.15;;;;;;;;;;6301624;28;20024;-80
2024/03/03 07:55:40;;;;;;;3.03;2.30;;;;;;;;;;6321021;28;20483;-80
2024/03/03 07:58:41;;;;;;;5.03;2.83;;;;;;;;;;6322831;28;20468;-81
2024/03/03 08:01:41;;;;;;;3.63;2.63;;;;;;;;;;6299852;28;20035;-80
2024/03/03 08:04:41;;;;;;;4.33;2.43;;;;;;;;;;6321416;28;20016;-79
2024/03/03 08:07:42;;;;;;;2.70;1.97;;;;;;;;;;6322678;28;20331;-80
2024/03/03 08:10:42;;;;;;;2.10;1.90;;;;;;;;;;6323851;28;20031;-79
2024/03/03 08:13:42;;;;;;;3.00;2.07;;;;;;;;;;6316707;28;20028;-81
2024/03/03 08:16:43;;;;;;;2.17;1.77;;;;;;;;;;6321890;28;20028;-80
2024/03/03 08:19:43;;;;;;;2.30;1.97;;;;;;;;;;6320924;28;20536;-81
2024/03/03 08:22:44;;;;;;;2.67;1.93;;;;;;;;;;6320644;28;20031;-82
2024/03/03 08:25:44;;;;;;;2.95;1.98;;;;;;;;;;6316859;28;20044;-80
2024/03/03 08:28:44;;;;;;;2.20;1.87;;;;;;;;;;6321640;28;20028;-82
2024/03/03 08:31:45;;;;;;;2.50;1.70;;;;;;;;;;6319843;28;20035;-81
2024/03/03 08:34:45;;;;;;;2.15;1.60;;;;;;;;;;6318152;28;20032;-79
2024/03/03 08:37:46;;;;;;;2.13;1.70;;;;;;;;;;6315312;28;20442;-78
2024/03/03 08:40:46;;;;;;;1.80;1.47;;;;;;;;;;6298682;28;20039;-79
2024/03/03 08:43:46;;;;;;;1.57;1.30;;;;;;;;;;6321549;28;20020;-79
2024/03/03 08:46:48;;;;;;;1.23;1.13;;;;;;;;;;6318976;28;21797;-79
2024/03/03 08:49:48;;;;;;;1.98;1.48;;;;;;;;;;6313848;28;20530;-79
2024/03/03 08:52:49;;;;;;;1.83;1.23;;;;;;;;;;6321056;28;20080;-78
2024/03/03 08:55:50;;;;;;;2.35;1.35;;;;;;;;;;6319842;28;20098;-79
2024/03/03 08:58:50;;;;;;;1.60;1.27;;;;;;;;;;6319641;28;20036;-78
2024/03/03 09:01:50;;;;;;;1.40;1.30;;;;;;;;;;6319439;28;20119;-78
2024/03/03 09:04:51;;;;;;;2.93;1.47;;;;;;;;;;6317102;28;20020;-79
2024/03/03 09:07:53;;;;;;;1.87;1.20;;;;;;;;;;6319747;28;20028;-79
2024/03/03 09:10:57;;;;;;;1.83;1.40;;;;;;;;;;6321041;28;20028;-79
2024/03/03 09:14:00;;;;;;;2.47;1.38;;;;;;;;;;6316375;28;20055;-78
2024/03/03 09:17:00;;;;;;;1.60;1.10;;;;;;;;;;6319714;28;20126;-79
2024/03/03 09:20:03;;;;;;;1.83;1.30;;;;;;;;;;6319090;28;20140;-77
2024/03/03 09:23:03;;;;;;;1.60;1.23;;;;;;;;;;6313387;28;20111;-78
2024/03/03 09:26:04;;;;;;;1.27;1.13;;;;;;;;;;6317669;28;20050;-77
2024/03/03 09:29:04;;;;;;;1.60;1.07;;;;;;;;;;6314858;28;20115;-77
2024/03/03 09:32:04;;;;;;;1.53;1.20;;;;;;;;;;6315787;28;20039;-77
2024/03/03 09:35:06;;;;;;;1.23;0.90;;;;;;;;;;6318216;28;20038;-77
2024/03/03 09:38:07;;;;;;;1.70;1.10;;;;;;;;;;6316116;28;20445;-77
2024/03/03 09:41:09;;;;;;;1.50;1.30;;;;;;;;;;6319695;28;20048;-78
2024/03/03 09:44:10;;;;;;;1.47;1.20;;;;;;;;;;6317504;28;20028;-78
2024/03/03 09:47:12;;;;;;;1.13;1.02;;;;;;;;;;6316899;28;20353;-77
2024/03/03 09:50:13;;;;;;;1.08;0.98;;;;;;;;;;6314640;28;20377;-78
2024/03/03 09:53:14;;;;;;;1.65;1.10;;;;;;;;;;6318176;28;20484;-77
2024/03/03 09:56:15;;;;;;;1.27;1.05;;;;;;;;;;6300975;28;20043;-77
2024/03/03 09:59:16;;;;;;;1.00;0.90;;;;;;;;;;6301827;28;20027;-77
2024/03/03 10:02:18;;;;;;;1.05;0.90;;;;;;;;;;6301446;28;20055;-78
2024/03/03 10:05:18;;;;;;;1.08;0.60;;;;;;;;;;6317743;28;20439;-77
2024/03/03 10:08:21;;;;;;;1.23;0.87;;;;;;;;;;6319982;28;20036;-78
2024/03/03 10:11:23;;;;;;;1.10;0.82;;;;;;;;;;6302376;28;20031;-76
2024/03/03 10:14:24;;;;;;;0.70;0.65;;;;;;;;;;6320037;28;20149;-77
2024/03/03 10:17:25;;;;;;;0.77;0.55;;;;;;;;;;6300771;28;20024;-78
2024/03/03 10:20:26;;;;;;;1.10;0.70;;;;;;;;;;6317940;28;20089;-77
2024/03/03 10:23:28;;;;;;;0.68;0.50;;;;;;;;;;6322370;28;20257;-78
2024/03/03 10:26:35;;;;;;;1.05;0.45;;;;;;;;;;6324343;28;20039;-77
2024/03/03 10:29:37;;;;;;;0.50;0.50;;;;;;;;;;6321899;28;20024;-77
2024/03/03 10:32:41;;;;;;;0.77;0.30;;;;;;;;;;6321800;28;20016;-77
2024/03/03 10:35:41;;;;;;;0.32;0.32;;;;;;;;;;6320271;28;20377;-77
2024/03/03 10:38:41;;;;;;;0.40;0.40;;;;;;;;;;6323314;28;20028;-77
2024/03/03 10:41:42;;;;;;;0.40;0.40;;;;;;;;;;6302739;28;20388;-77
2024/03/03 10:44:42;;;;;;;0.30;0.30;;;;;;;;;;6325388;28;20491;-77
2024/03/03 10:47:43;;;;;;;0.70;0.40;;;;;;;;;;6322145;28;20322;-77
2024/03/03 10:50:45;;;;;;;0.50;0.40;;;;;;;;;;6305328;28;20270;-77
2024/03/03 10:53:49;;;;;;;0.25;0.25;;;;;;;;;;6318762;28;20040;-78
2024/03/03 10:56:50;;;;;;;0.25;0.25;;;;;;;;;;6323929;28;20530;-77
2024/03/03 10:59:51;;;;;;;0.22;0.22;;;;;;;;;;6305582;28;20035;-77
2024/03/03 11:02:53;;;;;;;0.30;0.30;;;;;;;;;;6320651;28;20039;-77
2024/03/03 11:05:54;;;;;;;0.77;0.45;;;;;;;;;;6323076;28;20365;-77
2024/03/03 11:08:54;;;;;;;0.87;0.50;;;;;;;;;;6324004;28;20593;-77
2024/03/03 11:11:59;;;;;;;0.60;0.43;;;;;;;;;;6324001;28;20020;-77
2024/03/03 11:15:01;;;;;;;0.30;0.30;;;;;;;;;;6323624;28;20028;-77
2024/03/03 11:18:03;;;;;;;0.80;0.45;;;;;;;;;;6302565;28;20043;-77
2024/03/03 11:21:07;;;;;;;0.57;0.47;;;;;;;;;;6319504;28;20106;-77
2024/03/03 11:24:08;;;;;;;1.15;0.55;;;;;;;;;;6322441;28;20350;-77
2024/03/03 11:27:15;;;;;;;0.40;0.40;;;;;;;;;;6323115;28;20032;-77
2024/03/03 11:30:17;;;;;;;0.30;0.30;;;;;;;;;;6323362;28;20107;-77
2024/03/03 11:33:18;;;;;;;0.43;0.40;;;;;;;;;;6320801;28;20024;-77
2024/03/03 11:36:19;;;;;;;0.30;0.30;;;;;;;;;;6319832;28;20407;-78
2024/03/03 11:39:20;;;;;;;;;;;;;;;;;;6320556;28;20056;-77
2024/03/03 11:42:26;;;;;;;0.45;0.30;;;;;;;;;;6323737;28;20010;-77
2024/03/03 11:45:47;;;;;;;0.20;0.20;;;;;;;;;;6323384;28;20028;-77
2024/03/03 11:48:55;;;;;;;0.47;0.47;;;;;;;;;;6321141;28;20020;-77
2024/03/03 11:51:56;;;;;;;0.40;0.40;;;;;;;;;;6321115;28;20055;-77
2024/03/03 11:54:57;;;;;;;0.30;0.30;;;;;;;;;;6323438;28;20020;-78
2024/03/03 11:57:58;;;;;;;0.30;0.22;;;;;;;;;;6323898;28;20032;-78
2024/03/03 12:00:59;;;;;;;;;;;;;;;;;;6317656;28;20023;-77
2024/03/03 12:03:59;;;;;;;0.40;0.40;;;;;;;;;;6323036;28;19908;-77
2024/03/03 12:07:04;;;;;;;0.47;0.30;;;;;;;;;;6321433;28;20035;-77
2024/03/03 12:10:11;;;;;;;0.55;0.43;;;;;;;;;;6323537;28;20074;-78
2024/03/03 12:13:12;;;;;;;0.55;0.40;;;;;;;;;;6324302;28;20020;-77
2024/03/03 12:16:12;;;;;;;0.30;0.30;;;;;;;;;;6304171;28;20028;-78
2024/03/03 12:19:13;;;;;;;1.00;0.40;;;;;;;;;;6322967;28;20035;-78
2024/03/03 12:22:13;;;;;;;0.70;0.40;;;;;;;;;;6313918;28;20028;-78
2024/03/03 12:25:15;;;;;;;0.40;0.30;;;;;;;;;;6321484;28;20044;-78
2024/03/03 12:28:16;;;;;;;0.40;0.40;;;;;;;;;;6322031;28;20039;-78
2024/03/03 12:31:16;;;;;;;0.57;0.50;;;;;;;;;;6321087;28;20028;-78
2024/03/03 12:34:19;;;;;;;0.40;0.40;;;;;;;;;;6317968;28;20024;-78
2024/03/03 12:37:19;;;;;;;0.30;0.30;;;;;;;;;;6319599;28;20024;-77
2024/03/03 12:40:20;;;;;;;0.30;0.30;;;;;;;;;;6319368;28;20044;-78
2024/03/03 12:43:20;;;;;;;1.30;0.30;;;;;;;;;;6321063;28;20262;-77
2024/03/03 12:46:21;;;;;;;0.38;0.20;;;;;;;;;;6321557;28;20024;-77
2024/03/03 12:49:21;;;;;;;0.73;0.43;;;;;;;;;;6318811;28;20047;-77
2024/03/03 12:52:21;;;;;;;0.70;0.60;;;;;;;;;;6320485;28;20019;-77
2024/03/03 12:55:28;;;;;;;0.73;0.50;;;;;;;;;;6313023;28;20070;-77
2024/03/03 12:58:29;;;;;;;0.35;0.35;;;;;;;;;;6320529;28;20282;-77
2024/03/03 13:01:29;;;;;;;0.40;0.40;;;;;;;;;;6302675;28;20032;-77
2024/03/03 13:04:29;;;;;;;0.40;0.30;;;;;;;;;;6313836;28;20499;-77
2024/03/03 13:07:30;;;;;;;0.40;0.40;;;;;;;;;;6312266;28;20111;-76
2024/03/03 13:10:30;;;;;;;0.37;0.37;;;;;;;;;;6319754;28;20270;-77
2024/03/03 13:13:31;;;;;;;0.30;0.30;;;;;;;;;;6315843;28;20024;-77
2024/03/03 13:16:33;;;;;;;0.30;0.30;;;;;;;;;;6320761;28;20174;-77
2024/03/03 13:19:47;;;;;;;0.38;0.30;;;;;;;;;;6317555;28;20475;-77
2024/03/03 13:22:47;;;;;;;0.35;0.35;;;;;;;;;;6315943;28;20055;-77
2024/03/03 13:25:50;;;;;;;0.93;0.50;;;;;;;;;;6319661;28;20507;-77
2024/03/03 13:28:51;;;;;;;0.52;0.30;;;;;;;;;;6317993;28;20361;-77
2024/03/03 13:31:51;;;;;;;0.77;0.27;;;;;;;;;;6318953;28;20028;-77
2024/03/03 13:34:51;;;;;;;0.60;0.40;;;;;;;;;;6319254;28;20455;-77
2024/03/03 13:37:52;;;;;;;1.17;0.30;;;;;;;;;;6300731;28;20290;-77
2024/03/03 13:40:52;;;;;;;0.40;0.25;;;;;;;;;;6320291;28;20032;-76
2024/03/03 13:43:52;;;;;;;0.67;0.40;;;;;;;;;;6318829;28;20388;-77
2024/03/03 13:46:52;;;;;;;0.77;0.30;;;;;;;;;;6319070;28;20019;-77
2024/03/03 13:49:53;;;;;;;0.70;0.50;;;;;;;;;;6315786;28;20028;-76
2024/03/03 13:52:53;;;;;;;0.67;0.30;;;;;;;;;;6319077;28;20028;-76
2024/03/03 13:55:54;;;;;;;0.43;0.35;;;;;;;;;;6319856;28;20437;-77
2024/03/03 13:58:54;;;;;;;0.75;0.38;;;;;;;;;;6301360;28;20534;-77
2024/03/03 14:01:55;;;;;;;0.30;0.30;;;;;;;;;;6301344;28;20036;-77
2024/03/03 14:04:55;;;;;;;1.75;0.30;;;;;;;;;;6315796;28;20032;-77
2024/03/03 14:07:56;;;;;;;0.30;0.30;;;;;;;;;;6298970;28;20028;-77
2024/03/03 14:10:56;;;;;;;0.43;0.37;;;;;;;;;;6315033;28;20050;-77
2024/03/03 14:13:56;;;;;;;0.37;0.30;;;;;;;;;;6320440;28;20769;-77
2024/03/03 14:16:57;;;;;;;0.50;0.40;;;;;;;;;;6319759;28;20024;-76
2024/03/03 14:19:57;;;;;;;0.30;0.30;;;;;;;;;;6318494;28;20027;-76
2024/03/03 14:22:57;;;;;;;;;;;;;;;;;;6314108;28;20032;-76
2024/03/03 14:25:58;;;;;;;0.30;0.30;;;;;;;;;;6300626;28;19961;-76
2024/03/03 14:28:58;;;;;;;0.53;0.23;;;;;;;;;;6318859;28;20027;-76
2024/03/03 14:31:58;;;;;;;0.73;0.30;;;;;;;;;;6319254;28;20811;-76
2024/03/03 14:34:58;;;;;;;0.30;0.30;;;;;;;;;;6317329;28;20655;-76
2024/03/03 14:37:59;;;;;;;0.43;0.30;;;;;;;;;;6317680;28;20028;-76
2024/03/03 14:40:59;;;;;;;0.20;0.20;;;;;;;;;;6319052;28;20081;-76
2024/03/03 14:43:59;;;;;;;;;;;;;;;;;;6318475;28;20024;-81
2024/03/03 14:46:59;;;;;;;2.55;0.30;;;;;;;;;;6318810;28;19908;-81
2024/03/03 14:50:00;;;;;;;0.60;0.30;;;;;;;;;;6314976;28;20415;-83
2024/03/03 14:53:00;;;;;;;1.63;0.33;;;;;;;;;;6318812;28;20024;-84
2024/03/03 14:56:01;;;;;;;0.50;0.20;;;;;;;;;;6316375;28;20016;-83
2024/03/03 14:59:01;;;;;;;;;;;;;;;;;;6296844;28;20119;-84
2024/03/03 15:02:01;;;;;;;0.23;0.23;;;;;;;;;;6300586;28;19912;-83
2024/03/03 15:05:02;;;;;;;0.10;0.10;;;;;;;;;;6299999;28;20031;-83
2024/03/03 15:08:03;;;;;;;1.48;0.30;;;;;;;;;;6318683;28;20285;-84
2024/03/03 15:11:03;;;;;;;0.80;0.30;;;;;;;;;;6322833;28;20487;-83
2024/03/03 15:14:03;;;;;;;0.40;0.33;;;;;;;;;;6324535;28;20039;-80
2024/03/03 15:17:16;;;;;;;0.30;0.30;;;;;;;;;;6323433;28;20287;-80
2024/03/03 15:20:16;;;;;;;0.55;0.28;;;;;;;;;;6321345;28;20395;-77
2024/03/03 15:23:16;;;;;;;0.37;0.27;;;;;;;;;;6319740;28;20032;-76
2024/03/03 15:26:20;;;;;;;0.60;0.40;;;;;;;;;;6321585;28;20849;-76
2024/03/03 15:29:20;;;;;;;1.23;0.20;;;;;;;;;;6319042;28;20374;-78
2024/03/03 15:32:20;;;;;;;0.60;0.30;;;;;;;;;;6323204;28;20036;-77
2024/03/03 15:35:21;;;;;;;0.30;0.30;;;;;;;;;;6320092;28;20024;-76
2024/03/03 15:38:21;;;;;;;0.85;0.30;;;;;;;;;;6298295;28;20036;-76
2024/03/03 15:41:21;;;;;;;0.30;0.30;;;;;;;;;;6317154;28;20052;-76
2024/03/03 15:44:22;;;;;;;0.38;0.30;;;;;;;;;;6320682;28;20076;-76
2024/03/03 15:47:24;;;;;;;0.60;0.43;;;;;;;;;;6300305;28;20061;-78
2024/03/03 15:50:24;;;;;;;1.33;0.40;;;;;;;;;;6320909;28;20031;-76
2024/03/03 15:53:24;;;;;;;1.00;0.40;;;;;;;;;;6320398;28;20059;-76
2024/03/03 15:56:25;;;;;;;0.53;0.40;;;;;;;;;;6322252;28;20032;-75
2024/03/03 15:59:25;;;;;;;0.33;0.30;;;;;;;;;;6317374;28;20032;-76
2024/03/03 16:02:25;;;;;;;0.80;0.40;;;;;;;;;;6302428;28;20025;-75
2024/03/03 16:05:25;;;;;;;0.20;0.17;;;;;;;;;;6320815;28;20020;-75
2024/03/03 16:08:26;;;;;;;0.30;0.30;;;;;;;;;;6319384;28;20277;-75
2024/03/03 16:11:26;;;;;;;0.30;0.30;;;;;;;;;;6304216;28;20020;-76
2024/03/03 16:14:27;;;;;;;0.30;0.30;;;;;;;;;;6322415;28;20032;-74
2024/03/03 16:17:27;;;;;;;0.45;0.30;;;;;;;;;;6323041;28;20043;-75
2024/03/03 16:20:27;;;;;;;0.30;0.30;;;;;;;;;;6300438;28;20035;-75
2024/03/03 16:23:27;;;;;;;0.20;0.20;;;;;;;;;;6321696;28;20024;-76
2024/03/03 16:26:30;;;;;;;0.70;0.40;;;;;;;;;;6321485;28;20047;-76
2024/03/03 16:29:32;;;;;;;0.32;0.30;;;;;;;;;;6322275;28;20103;-75
2024/03/03 16:32:32;;;;;;;0.40;0.40;;;;;;;;;;6321937;28;20028;-76
2024/03/03 16:35:35;;;;;;;0.90;0.40;;;;;;;;;;6321649;28;20346;-76
2024/03/03 16:38:36;;;;;;;0.40;0.40;;;;;;;;;;6318595;28;20597;-75
2024/03/03 16:41:36;;;;;;;0.45;0.20;;;;;;;;;;6321418;28;20023;-76
2024/03/03 16:44:39;;;;;;;0.83;0.43;;;;;;;;;;6322304;28;20042;-76
2024/03/03 16:47:39;;;;;;;1.08;0.40;;;;;;;;;;6321587;28;24150;-76
2024/03/03 16:50:39;;;;;;;0.50;0.40;;;;;;;;;;6319726;28;20020;-78
2024/03/03 16:53:40;;;;;;;0.50;0.40;;;;;;;;;;6317430;28;20028;-79
2024/03/03 16:56:42;;;;;;;0.40;0.40;;;;;;;;;;6321167;28;20032;-78
2024/03/03 16:59:42;;;;;;;0.80;0.40;;;;;;;;;;6301849;28;20127;-79
2024/03/03 17:02:42;;;;;;;0.40;0.40;;;;;;;;;;6319945;28;20036;-79
2024/03/03 17:05:43;;;;;;;0.60;0.47;;;;;;;;;;6319169;28;20031;-77
2024/03/03 17:08:43;;;;;;;0.77;0.50;;;;;;;;;;6320762;28;20077;-78
2024/03/03 17:11:43;;;;;;;0.93;0.50;;;;;;;;;;6319169;28;20688;-78
2024/03/03 17:14:43;;;;;;;0.53;0.50;;;;;;;;;;6317514;28;20103;-78
2024/03/03 17:17:44;;;;;;;0.47;0.40;;;;;;;;;;6312318;28;20111;-78
2024/03/03 17:20:44;;;;;;;1.70;0.43;;;;;;;;;;6316800;28;20101;-79
2024/03/03 17:23:44;;;;;;;0.60;0.50;;;;;;;;;;6319601;28;20020;-76
2024/03/03 17:26:45;;;;;;;0.40;0.40;;;;;;;;;;6318804;28;20040;-76
2024/03/03 17:29:48;;;;;;;0.97;0.90;;;;;;;;;;6300097;28;20111;-76
2024/03/03 17:32:48;;;;;;;2.95;1.00;;;;;;;;;;6322364;28;20036;-77
2024/03/03 17:35:48;;;;;;;1.03;0.73;;;;;;;;;;6316888;28;20384;-76
2024/03/03 17:38:48;;;;;;;1.17;0.60;;;;;;;;;;6314965;28;20058;-77
2024/03/03 17:41:49;;;;;;;0.83;0.60;;;;;;;;;;6318087;28;20024;-77
2024/03/03 17:44:49;;;;;;;0.73;0.63;;;;;;;;;;6314819;28;20037;-76
2024/03/03 17:47:49;;;;;;;0.50;0.50;;;;;;;;;;6299906;28;20020;-76
2024/03/03 17:50:49;;;;;;;0.70;0.70;;;;;;;;;;6315547;28;20036;-75
2024/03/03 17:53:50;;;;;;;1.90;0.77;;;;;;;;;;6306776;28;20025;-76
2024/03/03 17:56:50;;;;;;;1.03;0.60;;;;;;;;;;6277994;28;20432;-75
2024/03/03 17:59:50;;;;;;;1.23;0.70;;;;;;;;;;6312266;28;20733;-76
2024/03/03 18:02:50;;;;;;;5.97;3.50;;;;;;;;;;6313496;28;20499;-75
2024/03/03 18:05:51;;;;;;;5.20;3.17;;;;;;;;;;6314379;28;20052;-75